Time;durP1;ratioP1;P1;durP2;ratioP2;P2;SDS_P1;SDS_P2;PMS_P1;PMS_P2;Temp;Humidity;BMP_temperature;BMP_pressure;BME280_temperature;BME280_humidity;BME280_pressure;Samples;Min_cycle;Max_cycle;Signal;HPM_P1;HPM_P2
2021/09/12 00:01:20;;;;;;;6.03;4.95;;;21.20;68.50;;;;;;20752588;28;20034;-58
2021/09/12 00:11:21;;;;;;;9.52;4.90;;;21.20;68.70;;;;;;20755560;28;20053;-58
2021/09/12 00:21:21;;;;;;;6.22;5.13;;;21.20;68.80;;;;;;20755834;28;20594;-58
2021/09/12 00:31:22;;;;;;;9.05;4.30;;;21.20;68.80;;;;;;20755915;28;20143;-59
2021/09/12 00:41:22;;;;;;;7.03;4.22;;;21.20;68.80;;;;;;20752387;28;20448;-59
2021/09/12 00:51:23;;;;;;;6.65;4.50;;;21.20;68.80;;;;;;20751387;28;20030;-56
2021/09/12 01:01:25;;;;;;;6.30;3.70;;;21.20;68.70;;;;;;20765374;28;20034;-59
2021/09/12 01:11:26;;;;;;;5.90;3.47;;;21.20;68.80;;;;;;20770035;28;20037;-59
2021/09/12 01:21:26;;;;;;;4.57;4.00;;;21.20;68.90;;;;;;20766060;28;20042;-59
2021/09/12 01:31:29;;;;;;;4.15;3.38;;;21.20;69.00;;;;;;20753126;28;20819;-58
2021/09/12 01:41:30;;;;;;;5.35;3.35;;;21.20;69.30;;;;;;20749722;28;20038;-57
2021/09/12 01:51:31;;;;;;;7.15;3.67;;;21.20;69.40;;;;;;20757427;28;20034;-57
2021/09/12 02:01:32;;;;;;;4.87;3.53;;;21.20;69.50;;;;;;20745036;28;20093;-58
2021/09/12 02:11:32;;;;;;;3.78;3.13;;;21.20;69.60;;;;;;20745765;28;20453;-57
2021/09/12 02:21:33;;;;;;;3.90;3.28;;;21.20;70.30;;;;;;20744802;28;20480;-57
2021/09/12 02:31:33;;;;;;;4.90;3.30;;;21.20;69.90;;;;;;20747434;28;20034;-57
2021/09/12 02:41:34;;;;;;;3.70;2.95;;;21.20;70.10;;;;;;20748674;28;20069;-58
2021/09/12 02:51:34;;;;;;;3.42;2.88;;;21.20;70.00;;;;;;20747251;28;20033;-59
2021/09/12 03:01:35;;;;;;;2.92;2.47;;;21.20;70.20;;;;;;20748905;28;20120;-58
2021/09/12 03:11:35;;;;;;;4.28;3.10;;;21.10;70.20;;;;;;20752820;28;20100;-59
2021/09/12 03:21:36;;;;;;;3.28;2.85;;;21.20;70.20;;;;;;20751916;28;20041;-56
2021/09/12 03:31:36;;;;;;;4.40;3.43;;;21.10;70.30;;;;;;20750874;28;20083;-59
2021/09/12 03:41:37;;;;;;;3.67;2.60;;;21.20;70.30;;;;;;20737650;28;20475;-56
2021/09/12 03:51:38;;;;;;;5.20;3.20;;;21.10;70.20;;;;;;20741428;28;20104;-57
2021/09/12 04:01:38;;;;;;;3.97;2.90;;;21.10;70.30;;;;;;20757734;28;20030;-59
2021/09/12 04:11:39;;;;;;;5.75;3.28;;;21.10;70.20;;;;;;20764641;28;20400;-60
2021/09/12 04:21:39;;;;;;;4.57;2.90;;;21.10;70.20;;;;;;20763386;28;20033;-57
2021/09/12 04:31:40;;;;;;;3.83;3.50;;;21.10;70.30;;;;;;20753420;28;20108;-59
2021/09/12 04:41:40;;;;;;;5.22;3.30;;;21.10;70.30;;;;;;20772727;28;20037;-57
2021/09/12 04:51:41;;;;;;;5.22;4.00;;;21.10;70.30;;;;;;20761199;28;20040;-59
2021/09/12 05:01:41;;;;;;;6.32;4.28;;;21.10;70.50;;;;;;20759573;28;20029;-57
2021/09/12 05:11:42;;;;;;;6.60;4.07;;;21.10;70.50;;;;;;20772805;28;20104;-57
2021/09/12 05:21:43;;;;;;;10.02;4.40;;;21.10;70.60;;;;;;20750680;28;20042;-58
2021/09/12 05:31:43;;;;;;;4.67;3.80;;;21.10;70.70;;;;;;20771755;28;20037;-57
2021/09/12 05:41:45;;;;;;;6.97;4.35;;;21.10;70.60;;;;;;20767759;28;20476;-56
2021/09/12 05:51:47;;;;;;;6.85;4.78;;;21.10;71.20;;;;;;20775655;28;20519;-59
2021/09/12 06:01:47;;;;;;;5.20;4.70;;;21.10;70.80;;;;;;20754710;28;20385;-55
2021/09/12 06:11:49;;;;;;;7.15;4.70;;;21.10;71.00;;;;;;20740702;28;20034;-60
2021/09/12 06:21:49;;;;;;;9.43;6.03;;;21.10;70.90;;;;;;20747032;28;20044;-59
2021/09/12 06:31:50;;;;;;;9.73;6.20;;;21.10;71.10;;;;;;20759790;28;20144;-60
2021/09/12 06:41:51;;;;;;;7.13;4.60;;;21.10;71.00;;;;;;20780362;28;20034;-58
2021/09/12 06:51:51;;;;;;;12.15;5.25;;;21.10;70.70;;;;;;20770360;28;21014;-55
2021/09/12 07:01:55;;;;;;;14.50;6.15;;;21.10;70.60;;;;;;20621114;28;20042;-61
2021/09/12 07:11:55;;;;;;;14.68;7.40;;;21.10;70.90;;;;;;20745934;28;20051;-59
2021/09/12 07:21:56;;;;;;;12.95;7.10;;;21.10;71.20;;;;;;20734741;28;20116;-60
2021/09/12 07:31:56;;;;;;;16.00;6.97;;;21.10;71.60;;;;;;20741481;28;20242;-58
2021/09/12 07:41:57;;;;;;;9.90;7.78;;;21.20;71.00;;;;;;20737519;28;20169;-58
2021/09/12 07:51:59;;;;;;;17.98;8.32;;;21.10;70.90;;;;;;20737477;28;20493;-58
2021/09/12 08:01:59;;;;;;;16.70;8.27;;;21.20;71.00;;;;;;20736387;28;20030;-58
2021/09/12 08:12:00;;;;;;;16.55;7.40;;;21.20;71.10;;;;;;20738384;28;20069;-59
2021/09/12 08:22:00;;;;;;;11.73;7.18;;;21.20;71.30;;;;;;20726413;28;20096;-60
2021/09/12 08:32:01;;;;;;;22.30;7.88;;;21.20;71.40;;;;;;20732750;28;20049;-60
2021/09/12 08:42:02;;;;;;;12.90;7.47;;;21.20;71.60;;;;;;20733460;28;20026;-57
2021/09/12 08:52:02;;;;;;;16.15;7.10;;;21.20;71.40;;;;;;20703042;28;20487;-56
2021/09/12 09:02:05;;;;;;;24.60;8.20;;;21.30;72.10;;;;;;20727877;28;20033;-58
2021/09/12 09:12:26;;;;;;;24.90;7.70;;;21.30;71.90;;;;;;20745215;28;20448;-56
2021/09/12 09:22:32;;;;;;;29.10;9.52;;;21.30;72.00;;;;;;20750527;28;20041;-59
2021/09/12 09:32:32;;;;;;;30.52;9.20;;;21.30;71.40;;;;;;20736626;28;20521;-63
2021/09/12 09:42:38;;;;;;;28.20;10.85;;;21.40;71.80;;;;;;20735964;28;20034;-62
2021/09/12 09:52:41;;;;;;;37.55;9.50;;;21.50;71.30;;;;;;20742384;28;20026;-62
2021/09/12 10:02:42;;;;;;;24.50;8.43;;;21.70;71.30;;;;;;20744447;28;20041;-61
2021/09/12 10:12:58;;;;;;;22.20;8.85;;;21.70;71.00;;;;;;20725055;28;20030;-61
2021/09/12 10:23:04;;;;;;;16.58;7.90;;;21.80;71.00;;;;;;20729377;28;20021;-60
2021/09/12 10:33:05;;;;;;;17.67;6.75;;;21.80;70.70;;;;;;20742196;28;20053;-60
2021/09/12 10:43:05;;;;;;;14.73;6.38;;;21.90;70.50;;;;;;20742990;28;20036;-61
2021/09/12 10:53:06;;;;;;;14.82;5.78;;;21.90;69.60;;;;;;20741070;28;20030;-61
2021/09/12 11:03:07;;;;;;;19.15;6.35;;;21.90;67.80;;;;;;20740302;28;20475;-61
2021/09/12 11:13:08;;;;;;;16.75;5.55;;;21.80;67.20;;;;;;20738866;28;20369;-60
2021/09/12 11:23:10;;;;;;;7.95;4.55;;;21.90;68.10;;;;;;20738342;28;20030;-62
2021/09/12 11:33:10;;;;;;;12.20;4.75;;;21.80;68.00;;;;;;20744949;28;20032;-60
2021/09/12 11:43:16;;;;;;;11.63;4.30;;;21.70;66.40;;;;;;20738722;28;20125;-59
2021/09/12 11:53:16;;;;;;;6.82;3.40;;;21.70;66.10;;;;;;20737034;28;20092;-57
2021/09/12 12:03:26;;;;;;;7.72;3.88;;;21.60;64.80;;;;;;20737213;28;20421;-62
2021/09/12 12:13:30;;;;;;;8.85;3.30;;;21.50;64.10;;;;;;20737219;28;20141;-60
2021/09/12 12:23:31;;;;;;;5.68;2.85;;;21.60;64.80;;;;;;20746160;28;20481;-60
2021/09/12 12:33:35;;;;;;;8.50;3.28;;;21.60;64.60;;;;;;20750642;28;20388;-61
2021/09/12 12:43:37;;;;;;;13.90;3.38;;;21.70;64.60;;;;;;20753691;28;20025;-60
2021/09/12 12:53:40;;;;;;;4.25;2.50;;;21.60;64.90;;;;;;20751471;28;20550;-59
2021/09/12 13:03:41;;;;;;;9.43;3.88;;;21.60;64.80;;;;;;20741010;28;20085;-60
2021/09/12 13:13:43;;;;;;;8.93;2.90;;;21.70;64.90;;;;;;20742455;28;20030;-58
2021/09/12 13:23:44;;;;;;;8.20;4.10;;;21.60;63.40;;;;;;20747483;28;20026;-59
2021/09/12 13:33:49;;;;;;;5.85;2.90;;;21.60;64.30;;;;;;20745483;28;20026;-61
2021/09/12 13:43:50;;;;;;;10.32;4.57;;;21.60;61.50;;;;;;20725661;28;20038;-61
2021/09/12 13:53:53;;;;;;;7.70;3.92;;;21.60;63.10;;;;;;20744958;28;20083;-60
2021/09/12 14:03:54;;;;;;;7.43;4.22;;;21.60;64.40;;;;;;20743357;28;20037;-61
2021/09/12 14:13:54;;;;;;;11.45;5.13;;;21.60;61.40;;;;;;20743670;28;20103;-61
2021/09/12 14:23:55;;;;;;;11.55;5.22;;;21.60;60.70;;;;;;20743272;28;20058;-60
2021/09/12 14:33:56;;;;;;;11.40;5.80;;;21.60;61.70;;;;;;20741942;28;20054;-61
2021/09/12 14:43:56;;;;;;;10.67;4.80;;;21.60;61.50;;;;;;20740228;28;20431;-59
2021/09/12 14:53:57;;;;;;;16.10;6.00;;;21.60;61.90;;;;;;20740561;28;21026;-59
2021/09/12 15:03:57;;;;;;;7.22;4.78;;;21.70;61.90;;;;;;20740426;28;20042;-60
2021/09/12 15:13:58;;;;;;;12.27;5.20;;;21.60;62.00;;;;;;20712405;28;20037;-60
2021/09/12 15:23:59;;;;;;;8.47;4.60;;;21.60;62.70;;;;;;20725814;28;20049;-60
2021/09/12 15:34:00;;;;;;;11.20;4.35;;;21.60;60.60;;;;;;20732248;28;20050;-59
2021/09/12 15:44:01;;;;;;;10.50;3.88;;;21.50;60.30;;;;;;20737484;28;20404;-60
2021/09/12 15:54:02;;;;;;;8.98;4.40;;;21.60;60.50;;;;;;20737254;28;20034;-60
2021/09/12 16:04:03;;;;;;;4.97;4.15;;;21.60;60.40;;;;;;20740778;28;20113;-59
2021/09/12 16:14:04;;;;;;;5.45;3.45;;;21.60;60.20;;;;;;20736262;28;20057;-59
2021/09/12 16:24:04;;;;;;;5.47;3.90;;;21.60;59.50;;;;;;20735795;28;20033;-59
2021/09/12 16:34:05;;;;;;;7.40;4.00;;;21.50;59.50;;;;;;20718391;28;20037;-60
2021/09/12 16:44:07;;;;;;;9.68;4.63;;;21.50;59.90;;;;;;20733929;28;20030;-62
2021/09/12 16:54:08;;;;;;;18.65;5.28;;;21.60;61.10;;;;;;20734942;28;20034;-62
2021/09/12 17:04:08;;;;;;;16.77;4.93;;;21.60;63.60;;;;;;20737840;28;20045;-60
2021/09/12 17:14:09;;;;;;;10.90;4.90;;;21.70;64.10;;;;;;20749192;28;20453;-60
2021/09/12 17:24:10;;;;;;;10.30;5.13;;;21.80;63.70;;;;;;20748467;28;20080;-61
2021/09/12 17:34:10;;;;;;;9.95;3.78;;;21.80;64.10;;;;;;20748824;28;20026;-62
2021/09/12 17:44:11;;;;;;;10.52;5.40;;;21.80;63.70;;;;;;20726176;28;20050;-59
2021/09/12 17:54:11;;;;;;;12.57;4.57;;;21.70;64.10;;;;;;20746421;28;20087;-60
2021/09/12 18:04:12;;;;;;;18.33;5.30;;;21.70;64.00;;;;;;20749930;28;20057;-59
2021/09/12 18:14:13;;;;;;;9.43;4.22;;;21.70;63.20;;;;;;20731910;28;20054;-53
2021/09/12 18:24:13;;;;;;;11.07;4.50;;;21.70;62.40;;;;;;20740134;28;20502;-59
2021/09/12 18:34:15;;;;;;;12.97;4.23;;;21.60;63.10;;;;;;20740228;28;20464;-59
2021/09/12 18:44:15;;;;;;;9.73;3.92;;;21.60;63.60;;;;;;20741557;28;20473;-53
2021/09/12 18:54:16;;;;;;;11.25;4.63;;;21.60;64.30;;;;;;20739687;28;20021;-57
2021/09/12 19:04:17;;;;;;;14.38;4.65;;;21.70;64.60;;;;;;20739571;28;20091;-57
2021/09/12 19:14:18;;;;;;;18.83;4.87;;;21.60;65.00;;;;;;20739814;28;20033;-58
2021/09/12 19:24:19;;;;;;;10.93;4.40;;;21.60;65.20;;;;;;20737128;28;20036;-58
2021/09/12 19:34:19;;;;;;;18.75;5.63;;;21.60;65.50;;;;;;20730466;28;20117;-58
2021/09/12 19:44:20;;;;;;;27.30;6.80;;;21.60;66.60;;;;;;20731793;28;20734;-55
2021/09/12 19:54:21;;;;;;;12.73;5.43;;;21.50;66.20;;;;;;20735272;28;20033;-56
2021/09/12 20:04:21;;;;;;;10.75;4.28;;;21.50;65.70;;;;;;20734955;28;20030;-58
2021/09/12 20:14:22;;;;;;;10.35;4.95;;;21.40;65.00;;;;;;20734544;28;20072;-58
2021/09/12 20:24:23;;;;;;;14.43;5.35;;;21.40;64.80;;;;;;20736211;28;20034;-58
2021/09/12 20:34:24;;;;;;;7.00;3.88;;;21.40;65.00;;;;;;20737032;28;20029;-58
2021/09/12 20:44:24;;;;;;;7.68;4.53;;;21.30;64.40;;;;;;20747995;28;20068;-58
2021/09/12 20:54:25;;;;;;;10.52;4.30;;;21.30;64.30;;;;;;20750614;28;20444;-57
2021/09/12 21:04:25;;;;;;;8.25;3.97;;;21.30;64.30;;;;;;20750062;28;20515;-58
2021/09/12 21:14:26;;;;;;;7.73;4.13;;;21.30;64.10;;;;;;20749082;28;20030;-58
2021/09/12 21:24:26;;;;;;;5.00;3.83;;;21.30;63.90;;;;;;20747946;28;20030;-58
2021/09/12 21:34:27;;;;;;;5.32;3.63;;;21.20;64.00;;;;;;20747308;28;20044;-57
2021/09/12 21:44:27;;;;;;;6.72;3.75;;;21.20;64.00;;;;;;20742406;28;20137;-56
2021/09/12 21:54:28;;;;;;;4.22;3.42;;;21.20;64.10;;;;;;20745032;28;20042;-58
2021/09/12 22:04:28;;;;;;;5.57;3.72;;;21.20;64.00;;;;;;20744775;28;20048;-57
2021/09/12 22:14:29;;;;;;;5.03;3.83;;;21.20;64.30;;;;;;20744226;28;20029;-56
2021/09/12 22:24:30;;;;;;;5.83;3.33;;;21.20;64.20;;;;;;20743304;28;20034;-55
2021/09/12 22:34:30;;;;;;;5.10;3.90;;;21.20;64.20;;;;;;20742997;28;20487;-57
2021/09/12 22:44:31;;;;;;;3.37;2.93;;;21.10;64.40;;;;;;20741251;28;20029;-55
2021/09/12 22:54:31;;;;;;;5.38;3.28;;;21.10;64.20;;;;;;20741231;28;20895;-56
2021/09/12 23:04:32;;;;;;;5.10;3.10;;;21.10;64.30;;;;;;20739490;28;20594;-55
2021/09/12 23:14:33;;;;;;;5.72;3.15;;;21.10;64.90;;;;;;20739739;28;20036;-56
2021/09/12 23:24:33;;;;;;;3.88;2.60;;;21.10;64.30;;;;;;20738885;28;20076;-58
2021/09/12 23:34:34;;;;;;;5.25;3.67;;;21.10;64.70;;;;;;20738891;28;20393;-58
2021/09/12 23:44:34;;;;;;;4.75;3.67;;;21.10;64.20;;;;;;20737880;28;20092;-56
2021/09/12 23:54:35;;;;;;;5.63;2.90;;;21.10;64.10;;;;;;20735926;28;20480;-53
